createdAt,value
2018-08-11T00:00:23.238Z,2.30
2018-08-11T00:02:52.097Z,1.52
2018-08-11T00:05:20.616Z,2.42
2018-08-11T00:07:49.846Z,1.40
2018-08-11T00:10:18.591Z,1.77
2018-08-11T00:12:47.432Z,1.98
2018-08-11T00:15:18.740Z,1.60
2018-08-11T00:17:47.472Z,2.77
2018-08-11T00:20:24.421Z,1.90
2018-08-11T00:22:52.973Z,1.60
2018-08-11T00:25:21.596Z,1.45
2018-08-11T00:27:50.277Z,1.90
2018-08-11T00:30:20.815Z,1.45
2018-08-11T00:32:49.412Z,2.10
2018-08-11T00:35:17.941Z,1.37
2018-08-11T00:37:46.581Z,1.40
2018-08-11T00:40:19.038Z,1.45
2018-08-11T00:42:48.561Z,2.22
2018-08-11T00:45:17.955Z,1.22
2018-08-11T00:47:46.621Z,1.62
2018-08-11T00:50:18.068Z,2.02
2018-08-11T00:52:46.927Z,1.80
2018-08-11T00:55:15.456Z,1.70
2018-08-11T00:57:44.099Z,1.75
2018-08-11T01:00:15.147Z,1.50
2018-08-11T01:02:43.971Z,1.60
2018-08-11T01:05:14.624Z,1.40
2018-08-11T01:07:44.110Z,1.40
2018-08-11T01:10:14.472Z,1.50
2018-08-11T01:12:44.630Z,1.10
2018-08-11T01:15:16.731Z,1.62
2018-08-11T01:17:45.872Z,2.93
2018-08-11T01:20:14.765Z,2.55
2018-08-11T01:22:44.009Z,1.50
2018-08-11T01:25:13.939Z,1.53
2018-08-11T01:27:42.716Z,1.20
2018-08-11T01:30:15.745Z,1.87
2018-08-11T01:32:44.448Z,1.50
2018-08-11T01:35:13.206Z,1.47
2018-08-11T01:37:42.678Z,1.40
2018-08-11T01:40:12.821Z,2.67
2018-08-11T01:42:42.486Z,1.67
2018-08-11T01:45:12.152Z,1.50
2018-08-11T01:47:41.801Z,1.72
2018-08-11T01:50:12.012Z,2.98
2018-08-11T01:52:42.498Z,1.40
2018-08-11T01:55:12.170Z,2.70
2018-08-11T01:57:41.708Z,1.60
2018-08-11T02:00:12.566Z,1.60
2018-08-11T02:02:41.407Z,1.50
2018-08-11T02:05:10.936Z,1.32
2018-08-11T02:07:41.327Z,1.20
2018-08-11T02:10:12.420Z,1.40
2018-08-11T02:12:41.695Z,1.30
2018-08-11T02:15:12.077Z,1.57
2018-08-11T02:17:40.829Z,1.70
2018-08-11T02:20:13.459Z,1.50
2018-08-11T02:22:42.855Z,1.80
2018-08-11T02:25:11.625Z,1.40
2018-08-11T02:27:40.221Z,2.25
2018-08-11T02:30:12.181Z,2.37
2018-08-11T02:32:40.812Z,1.27
2018-08-11T02:35:10.671Z,1.52
2018-08-11T02:37:39.442Z,1.50
2018-08-11T02:40:09.814Z,1.07
2018-08-11T02:42:38.512Z,1.33
2018-08-11T02:45:08.379Z,1.20
2018-08-11T02:47:37.030Z,1.50
2018-08-11T02:50:08.165Z,1.02
2018-08-11T02:52:36.652Z,1.85
2018-08-11T02:55:05.693Z,1.30
2018-08-11T02:57:34.459Z,1.98
2018-08-11T03:00:04.259Z,1.50
2018-08-11T03:02:32.841Z,1.42
2018-08-11T03:05:01.351Z,1.42
2018-08-11T03:07:29.877Z,1.77
2018-08-11T03:09:58.672Z,1.57
2018-08-11T03:12:27.199Z,1.50
2018-08-11T03:14:58.553Z,1.65
2018-08-11T03:17:26.993Z,1.50
2018-08-11T03:19:55.928Z,1.33
2018-08-11T03:22:25.387Z,1.40
2018-08-11T03:24:53.842Z,1.10
2018-08-11T03:27:23.399Z,1.40
2018-08-11T03:29:51.853Z,2.45
2018-08-11T03:32:20.672Z,1.40
2018-08-11T03:34:49.202Z,1.47
2018-08-11T03:37:17.706Z,1.80
2018-08-11T03:39:46.476Z,1.30
2018-08-11T03:42:14.930Z,1.50
2018-08-11T03:44:43.435Z,1.70
2018-08-11T03:47:12.814Z,2.33
2018-08-11T03:49:41.500Z,1.30
2018-08-11T03:52:10.263Z,1.60
2018-08-11T03:54:39.022Z,1.52
2018-08-11T03:57:08.561Z,1.62
2018-08-11T03:59:37.088Z,1.50
2018-08-11T04:02:05.915Z,1.55
2018-08-11T04:04:38.425Z,1.73
2018-08-11T04:07:07.132Z,3.17
2018-08-11T04:09:35.570Z,2.42
2018-08-11T04:12:04.078Z,2.00
2018-08-11T04:14:32.809Z,1.90
2018-08-11T04:17:01.287Z,2.53
2018-08-11T04:19:30.095Z,4.23
2018-08-11T04:21:58.886Z,2.27
2018-08-11T04:24:27.466Z,2.30
2018-08-11T04:26:57.471Z,2.20
2018-08-11T04:29:26.254Z,2.73
2018-08-11T04:31:56.178Z,2.73
2018-08-11T04:34:24.749Z,2.58
2018-08-11T04:36:53.185Z,2.50
2018-08-11T04:39:21.694Z,2.58
2018-08-11T04:41:50.180Z,2.40
2018-08-11T04:44:18.930Z,2.60
2018-08-11T04:46:47.959Z,2.60
2018-08-11T04:49:16.553Z,2.30
2018-08-11T04:51:45.427Z,2.50
2018-08-11T04:54:13.997Z,2.20
2018-08-11T04:56:43.413Z,2.77
2018-08-11T04:59:12.091Z,2.42
2018-08-11T05:01:42.697Z,2.53
2018-08-11T05:04:11.210Z,2.80
2018-08-11T05:06:40.244Z,2.57
2018-08-11T05:09:10.184Z,3.03
2018-08-11T05:11:38.697Z,2.80
2018-08-11T05:14:07.320Z,3.40
2018-08-11T05:16:37.278Z,3.30
2018-08-11T05:19:05.932Z,3.33
2018-08-11T05:21:34.515Z,3.17
2018-08-11T05:24:03.293Z,3.37
2018-08-11T05:26:32.101Z,4.23
2018-08-11T05:29:00.642Z,3.40
2018-08-11T05:31:29.088Z,3.40
2018-08-11T05:33:58.467Z,3.10
2018-08-11T05:36:27.250Z,3.13
2018-08-11T05:38:57.295Z,3.20
2018-08-11T05:41:27.069Z,2.93
2018-08-11T05:43:55.531Z,3.60
2018-08-11T05:46:24.025Z,3.07
2018-08-11T05:48:53.802Z,3.37
2018-08-11T05:51:22.410Z,3.47
2018-08-11T05:53:51.094Z,3.20
2018-08-11T05:56:19.796Z,3.10
2018-08-11T05:58:49.245Z,2.77
2018-08-11T06:01:17.830Z,2.40
2018-08-11T06:03:46.418Z,2.40
2018-08-11T06:06:15.297Z,2.10
2018-08-11T06:08:44.421Z,1.50
2018-08-11T06:11:13.103Z,1.77
2018-08-11T06:13:41.692Z,1.67
2018-08-11T06:16:10.263Z,1.43
2018-08-11T06:18:38.746Z,1.67
2018-08-11T06:21:08.840Z,2.10
2018-08-11T06:23:37.558Z,1.30
2018-08-11T06:26:06.077Z,0.87
2018-08-11T06:28:34.627Z,1.20
2018-08-11T06:31:03.208Z,0.80
2018-08-11T06:33:32.001Z,1.13
2018-08-11T06:36:00.575Z,0.90
2018-08-11T06:38:29.199Z,1.07
2018-08-11T06:40:57.969Z,1.53
2018-08-11T06:43:26.343Z,0.90
2018-08-11T06:45:55.055Z,0.93
2018-08-11T06:48:23.620Z,1.00
2018-08-11T06:50:52.298Z,3.07
2018-08-11T06:53:20.921Z,1.92
2018-08-11T06:55:54.508Z,2.43
2018-08-11T06:58:23.145Z,1.30
2018-08-11T07:00:51.709Z,0.77
2018-08-11T07:03:20.150Z,0.93
2018-08-11T07:05:48.755Z,0.88
2018-08-11T07:08:17.169Z,0.93
2018-08-11T07:10:45.678Z,0.70
2018-08-11T07:13:14.163Z,1.27
2018-08-11T07:15:42.645Z,1.20
2018-08-11T07:18:11.259Z,0.90
2018-08-11T07:20:39.809Z,1.00
2018-08-11T07:23:08.355Z,0.73
2018-08-11T07:25:36.907Z,1.27
2018-08-11T07:28:06.600Z,0.70
2018-08-11T07:30:35.108Z,0.80
2018-08-11T07:33:03.609Z,0.70
2018-08-11T07:35:32.119Z,0.90
2018-08-11T07:38:00.757Z,1.42
2018-08-11T07:40:29.426Z,1.37
2018-08-11T07:42:58.031Z,1.37
2018-08-11T07:45:26.509Z,1.50
2018-08-11T07:47:55.086Z,1.50
2018-08-11T07:50:23.725Z,1.30
2018-08-11T07:52:52.301Z,0.80
2018-08-11T07:55:22.037Z,1.17
2018-08-11T07:57:51.613Z,1.07
2018-08-11T08:00:20.261Z,1.20
2018-08-11T08:02:49.191Z,1.50
2018-08-11T08:05:17.685Z,1.50
2018-08-11T08:07:46.178Z,1.87
2018-08-11T08:10:14.648Z,2.40
2018-08-11T08:12:43.203Z,3.50
2018-08-11T08:15:11.829Z,3.22
2018-08-11T08:17:40.341Z,4.27
2018-08-11T08:20:09.037Z,2.00
2018-08-11T08:22:37.708Z,1.92
2018-08-11T08:25:06.956Z,2.10
2018-08-11T08:27:35.459Z,1.90
2018-08-11T08:30:05.856Z,2.52
2018-08-11T08:32:34.557Z,2.35
2018-08-11T08:35:03.466Z,2.72
2018-08-11T08:37:32.071Z,2.42
2018-08-11T08:40:01.333Z,2.67
2018-08-11T08:42:30.563Z,2.40
2018-08-11T08:44:59.148Z,2.50
2018-08-11T08:47:29.328Z,2.27
2018-08-11T08:49:57.814Z,1.90
2018-08-11T08:52:26.542Z,2.30
2018-08-11T08:54:55.190Z,2.50
2018-08-11T08:57:24.397Z,2.42
2018-08-11T08:59:53.003Z,2.80
2018-08-11T09:02:22.170Z,2.27
2018-08-11T09:04:50.704Z,2.10
2018-08-11T09:07:20.465Z,2.60
2018-08-11T09:09:50.410Z,2.58
2018-08-11T09:12:19.026Z,3.40
2018-08-11T09:14:47.600Z,2.50
2018-08-11T09:17:16.057Z,2.35
2018-08-11T09:19:44.633Z,2.98
2018-08-11T09:22:13.134Z,3.23
2018-08-11T09:24:41.699Z,2.75
2018-08-11T09:27:11.768Z,2.60
2018-08-11T09:29:41.648Z,2.65
2018-08-11T09:32:11.583Z,3.62
2018-08-11T09:34:40.654Z,2.75
2018-08-11T09:37:09.126Z,2.80
2018-08-11T09:39:37.682Z,2.25
2018-08-11T09:42:06.334Z,4.63
2018-08-11T09:44:34.852Z,3.02
2018-08-11T09:47:03.868Z,3.00
2018-08-11T09:49:32.511Z,2.70
2018-08-11T09:52:01.012Z,2.90
2018-08-11T09:54:29.734Z,2.22
2018-08-11T09:56:58.758Z,2.70
2018-08-11T09:59:27.485Z,2.60
2018-08-11T10:02:01.433Z,2.70
2018-08-11T10:04:30.049Z,2.90
2018-08-11T10:06:58.560Z,2.42
2018-08-11T10:09:28.220Z,2.60
2018-08-11T10:11:57.021Z,2.60
2018-08-11T10:14:25.862Z,3.05
2018-08-11T10:16:54.527Z,2.45
2018-08-11T10:19:23.050Z,2.70
2018-08-11T10:35:34.891Z,2.60
2018-08-11T10:38:03.523Z,2.37
2018-08-11T10:40:32.823Z,2.83
2018-08-11T10:43:01.405Z,2.62
2018-08-11T10:45:29.957Z,2.50
2018-08-11T10:47:58.468Z,3.50
2018-08-11T10:50:26.974Z,2.72
2018-08-11T10:52:55.655Z,3.00
2018-08-11T10:55:24.761Z,3.02
2018-08-11T10:57:53.263Z,3.12
2018-08-11T11:00:27.421Z,4.67
2018-08-11T11:02:56.017Z,2.67
2018-08-11T11:05:24.499Z,2.30
2018-08-11T11:07:53.798Z,2.95
2018-08-11T11:10:22.677Z,2.37
2018-08-11T11:12:51.236Z,2.92
2018-08-11T11:15:19.736Z,3.00
2018-08-11T11:17:48.700Z,3.00
2018-08-11T11:20:17.377Z,1.98
2018-08-11T11:22:46.039Z,3.42
2018-08-11T11:25:14.685Z,2.70
2018-08-11T11:27:43.450Z,2.60
2018-08-11T11:30:12.086Z,2.67
2018-08-11T11:32:40.630Z,2.35
2018-08-11T11:35:09.112Z,3.52
2018-08-11T11:37:38.516Z,2.70
2018-08-11T11:40:07.604Z,2.20
2018-08-11T11:42:37.430Z,2.08
2018-08-11T11:45:05.994Z,1.90
2018-08-11T11:47:35.852Z,2.10
2018-08-11T11:50:07.772Z,2.22
2018-08-11T11:52:36.324Z,1.67
2018-08-11T11:55:05.000Z,2.83
2018-08-11T11:57:33.625Z,2.05
2018-08-11T12:00:02.246Z,2.27
2018-08-11T12:02:30.872Z,2.05
2018-08-11T12:04:59.895Z,2.27
2018-08-11T12:07:28.433Z,1.47
2018-08-11T12:09:57.268Z,2.08
2018-08-11T12:12:25.707Z,2.40
2018-08-11T12:14:54.373Z,1.72
2018-08-11T12:17:22.794Z,1.90
2018-08-11T12:19:51.205Z,1.67
2018-08-11T12:22:21.614Z,1.72
2018-08-11T12:24:50.237Z,1.65
2018-08-11T12:27:18.779Z,2.12
2018-08-11T12:29:47.516Z,2.02
2018-08-11T12:32:16.117Z,1.57
2018-08-11T12:34:45.749Z,1.75
2018-08-11T12:37:14.407Z,1.80
2018-08-11T12:39:42.890Z,1.70
2018-08-11T12:42:11.575Z,1.50
2018-08-11T12:44:40.070Z,3.00
2018-08-11T12:47:08.606Z,2.62
2018-08-11T12:49:39.103Z,4.65
2018-08-11T12:52:07.675Z,2.35
2018-08-11T12:54:36.189Z,2.42
2018-08-11T12:57:04.970Z,1.67
2018-08-11T12:59:33.962Z,3.60
2018-08-11T13:02:02.577Z,1.67
2018-08-11T13:04:31.173Z,1.72
2018-08-11T13:06:59.758Z,1.82
2018-08-11T13:09:29.677Z,1.98
2018-08-11T13:11:58.298Z,1.15
2018-08-11T13:14:26.885Z,1.90
2018-08-11T13:16:55.645Z,1.27
2018-08-11T13:19:24.938Z,1.22
2018-08-11T13:21:53.484Z,2.60
2018-08-11T13:24:21.938Z,1.32
2018-08-11T13:26:50.378Z,1.20
2018-08-11T13:29:19.044Z,1.52
2018-08-11T13:31:47.488Z,1.10
2018-08-11T13:34:16.031Z,1.20
2018-08-11T13:36:44.646Z,1.90
2018-08-11T13:39:20.274Z,1.67
2018-08-11T13:41:49.901Z,1.80
2018-08-11T13:44:20.010Z,1.77
2018-08-11T13:46:49.936Z,3.58
2018-08-11T13:49:18.422Z,1.27
2018-08-11T13:51:47.668Z,1.57
2018-08-11T13:54:29.807Z,1.30
2018-08-11T13:57:06.647Z,1.62
2018-08-11T13:59:35.356Z,2.70
2018-08-11T14:02:04.197Z,2.65
2018-08-11T14:04:33.169Z,2.20
2018-08-11T14:07:02.045Z,1.55
2018-08-11T14:09:30.813Z,1.98
2018-08-11T14:11:59.637Z,1.90
2018-08-11T14:14:28.370Z,2.52
2018-08-11T14:16:57.146Z,1.70
2018-08-11T14:19:25.746Z,3.05
2018-08-11T14:21:54.400Z,1.70
2018-08-11T14:24:23.842Z,3.10
2018-08-11T14:26:53.445Z,1.80
2018-08-11T14:29:22.020Z,1.50
2018-08-11T14:31:50.877Z,1.35
2018-08-11T14:34:19.553Z,2.37
2018-08-11T14:36:48.222Z,1.95
2018-08-11T14:39:16.796Z,1.45
2018-08-11T14:41:45.440Z,1.12
2018-08-11T14:44:14.038Z,1.42
2018-08-11T14:46:42.607Z,2.30
2018-08-11T14:49:11.246Z,1.93
2018-08-11T14:51:39.870Z,1.27
2018-08-11T14:54:08.472Z,1.70
2018-08-11T14:56:37.134Z,1.02
2018-08-11T14:59:05.804Z,2.00
2018-08-11T15:01:35.864Z,2.37
2018-08-11T15:04:05.652Z,1.60
2018-08-11T15:06:34.565Z,1.47
2018-08-11T15:09:04.209Z,1.87
2018-08-11T15:11:33.278Z,2.72
2018-08-11T15:14:01.766Z,1.55
2018-08-11T15:16:30.438Z,3.92
2018-08-11T15:19:01.555Z,2.02
2018-08-11T15:21:30.067Z,3.72
2018-08-11T15:23:58.628Z,2.55
2018-08-11T15:26:27.218Z,3.72
2018-08-11T15:31:30.696Z,2.52
2018-08-11T15:33:59.578Z,2.20
2018-08-11T15:36:28.266Z,1.98
2018-08-11T15:38:56.989Z,2.67
2018-08-11T15:41:25.552Z,2.25
2018-08-11T15:43:54.212Z,1.70
2018-08-11T15:46:22.874Z,1.80
2018-08-11T15:48:51.652Z,2.80
2018-08-11T15:51:20.375Z,3.17
2018-08-11T15:53:48.892Z,2.10
2018-08-11T15:56:17.581Z,2.12
2018-08-11T15:58:46.166Z,2.10
2018-08-11T16:01:14.815Z,2.13
2018-08-11T16:03:43.374Z,2.17
2018-08-11T16:06:13.768Z,2.52
2018-08-11T16:08:42.385Z,2.52
2018-08-11T16:11:10.964Z,2.75
2018-08-11T16:13:39.599Z,2.85
2018-08-11T16:16:08.678Z,2.40
2018-08-11T16:18:37.228Z,2.90
2018-08-11T16:21:06.048Z,2.70
2018-08-11T16:23:34.704Z,3.77
2018-08-11T16:26:03.314Z,1.70
2018-08-11T16:28:31.872Z,1.52
2018-08-11T16:31:00.373Z,2.30
2018-08-11T16:33:29.040Z,3.50
2018-08-11T16:35:57.552Z,3.02
2018-08-11T16:38:26.072Z,2.10
2018-08-11T16:40:54.677Z,2.62
2018-08-11T16:43:23.436Z,3.17
2018-08-11T16:45:52.186Z,2.50
2018-08-11T16:48:20.715Z,2.25
2018-08-11T16:50:49.223Z,1.98
2018-08-11T16:53:17.747Z,5.05
2018-08-11T16:55:46.867Z,3.47
2018-08-11T16:58:15.525Z,2.07
2018-08-11T17:00:44.231Z,2.22
2018-08-11T17:03:12.720Z,2.92
2018-08-11T17:05:41.467Z,1.98
2018-08-11T17:08:10.008Z,3.75
2018-08-11T17:10:38.507Z,1.98
2018-08-11T17:13:07.113Z,2.60
2018-08-11T17:15:35.704Z,3.15
2018-08-11T17:18:04.489Z,2.42
2018-08-11T17:20:33.453Z,3.30
2018-08-11T17:23:02.015Z,2.20
2018-08-11T17:25:30.700Z,3.37
2018-08-11T17:27:59.193Z,3.95
2018-08-11T17:30:27.788Z,2.70
2018-08-11T17:32:56.234Z,4.25
2018-08-11T17:35:24.782Z,3.10
2018-08-11T17:37:53.383Z,2.35
2018-08-11T17:40:22.029Z,3.13
2018-08-11T17:42:50.688Z,4.50
2018-08-11T17:45:19.202Z,2.60
2018-08-11T17:47:47.768Z,4.95
2018-08-11T17:50:16.326Z,1.92
2018-08-11T17:52:44.938Z,3.12
2018-08-11T17:55:13.496Z,3.50
2018-08-11T17:57:42.586Z,2.12
2018-08-11T18:00:12.172Z,1.87
2018-08-11T18:02:40.709Z,1.52
2018-08-11T18:05:09.392Z,2.47
2018-08-11T18:07:37.996Z,2.35
2018-08-11T18:10:06.836Z,2.80
2018-08-11T18:12:35.508Z,3.12
2018-08-11T18:15:04.215Z,3.40
2018-08-11T18:17:35.565Z,3.42
2018-08-11T18:20:04.292Z,2.90
2018-08-11T18:22:32.897Z,3.40
2018-08-11T18:25:12.116Z,3.58
2018-08-11T18:27:42.611Z,3.45
2018-08-11T18:30:16.009Z,1.85
2018-08-11T18:32:44.675Z,2.33
2018-08-11T18:35:13.285Z,2.85
2018-08-11T18:37:41.860Z,1.72
2018-08-11T18:40:10.448Z,2.00
2018-08-11T18:42:40.006Z,1.65
2018-08-11T18:45:08.946Z,2.85
2018-08-11T18:47:37.429Z,4.00
2018-08-11T18:50:06.624Z,2.42
2018-08-11T18:52:35.249Z,2.35
2018-08-11T18:55:07.393Z,2.90
2018-08-11T18:57:35.970Z,2.22
2018-08-11T19:00:09.418Z,3.30
2018-08-11T19:02:37.985Z,2.75
2018-08-11T19:05:06.585Z,3.83
2018-08-11T19:07:35.170Z,2.75
2018-08-11T19:10:06.794Z,3.27
2018-08-11T19:12:37.377Z,2.80
2018-08-11T19:15:08.046Z,2.72
2018-08-11T19:17:40.350Z,2.72
2018-08-11T19:20:17.295Z,5.70
2018-08-11T19:26:26.684Z,3.27
2018-08-11T19:29:39.784Z,1.80
2018-08-11T19:35:12.717Z,3.22
2018-08-11T19:38:00.606Z,2.20
2018-08-11T19:40:30.539Z,4.58
2018-08-11T19:42:59.132Z,2.27
2018-08-11T19:45:28.802Z,3.65
2018-08-11T19:47:57.382Z,3.10
2018-08-11T19:50:28.487Z,4.12
2018-08-11T19:52:57.006Z,4.28
2018-08-11T19:55:26.484Z,4.28
2018-08-11T19:57:55.087Z,5.40
2018-08-11T20:00:23.643Z,4.67
2018-08-11T20:02:52.215Z,5.05
2018-08-11T20:05:20.768Z,4.75
2018-08-11T20:07:49.638Z,6.10
2018-08-11T20:10:18.136Z,4.60
2018-08-11T20:12:47.313Z,4.55
2018-08-11T20:15:15.873Z,3.67
2018-08-11T20:17:44.419Z,2.80
2018-08-11T20:20:14.145Z,3.90
2018-08-11T20:22:44.522Z,4.33
2018-08-11T20:25:13.596Z,3.37
2018-08-11T20:27:42.131Z,2.83
2018-08-11T20:30:11.457Z,4.08
2018-08-11T20:32:39.928Z,3.95
2018-08-11T20:35:08.472Z,3.67
2018-08-11T20:37:37.045Z,4.80
2018-08-11T20:40:05.981Z,2.80
2018-08-11T20:42:34.572Z,4.30
2018-08-11T20:45:08.429Z,3.67
2018-08-11T20:47:36.925Z,2.92
2018-08-11T20:50:06.060Z,4.97
2018-08-11T20:52:35.193Z,5.85
2018-08-11T20:55:04.295Z,5.60
2018-08-11T20:57:32.896Z,4.15
2018-08-11T21:00:01.557Z,5.47
2018-08-11T21:02:30.107Z,3.47
2018-08-11T21:04:59.504Z,3.67
2018-08-11T21:07:28.044Z,3.57
2018-08-11T21:09:57.502Z,3.53
2018-08-11T21:12:26.688Z,3.60
2018-08-11T21:14:55.318Z,4.93
2018-08-11T21:17:24.200Z,4.45
2018-08-11T21:19:52.895Z,5.70
2018-08-11T21:22:21.572Z,6.73
2018-08-11T21:24:51.060Z,6.10
2018-08-11T21:27:19.559Z,4.10
2018-08-11T21:29:48.654Z,5.70
2018-08-11T21:32:17.271Z,5.50
2018-08-11T21:34:45.824Z,3.60
2018-08-11T21:37:14.437Z,3.50
2018-08-11T21:39:42.832Z,3.10
2018-08-11T21:42:11.302Z,3.87
2018-08-11T21:44:40.094Z,3.70
2018-08-11T21:47:08.546Z,3.67
2018-08-11T21:49:37.158Z,3.17
2018-08-11T21:52:06.596Z,3.30
2018-08-11T21:54:35.551Z,4.10
2018-08-11T21:57:04.104Z,3.67
2018-08-11T21:59:32.596Z,4.00
2018-08-11T22:02:01.532Z,5.50
2018-08-11T22:04:32.889Z,4.03
2018-08-11T22:07:04.125Z,3.20
2018-08-11T22:09:34.598Z,3.77
2018-08-11T22:12:03.847Z,3.57
2018-08-11T22:14:32.442Z,3.87
2018-08-11T22:17:01.426Z,3.67
2018-08-11T22:19:29.940Z,3.37
2018-08-11T22:21:58.567Z,3.50
2018-08-11T22:24:27.204Z,3.90
2018-08-11T22:26:55.752Z,3.50
2018-08-11T22:29:27.620Z,4.50
2018-08-11T22:31:56.195Z,3.40
2018-08-11T22:34:24.686Z,4.93
2018-08-11T22:36:53.160Z,4.57
2018-08-11T22:39:21.607Z,5.47
2018-08-11T22:41:50.889Z,3.50
2018-08-11T22:44:19.368Z,4.55
2018-08-11T22:46:47.918Z,3.30
2018-08-11T22:49:16.797Z,3.60
2018-08-11T22:51:45.413Z,3.63
2018-08-11T22:54:14.028Z,3.47
2018-08-11T22:56:42.486Z,3.27
2018-08-11T22:59:11.024Z,5.67
2018-08-11T23:01:39.542Z,3.40
2018-08-11T23:04:12.517Z,3.80
2018-08-11T23:06:41.289Z,3.27
2018-08-11T23:09:09.812Z,2.90
2018-08-11T23:13:07.731Z,2.90
2018-08-11T23:15:36.247Z,2.80
2018-08-11T23:18:04.757Z,2.80
2018-08-11T23:20:33.260Z,3.00
2018-08-11T23:23:01.720Z,3.40
2018-08-11T23:25:30.165Z,3.33
2018-08-11T23:27:58.676Z,4.63
2018-08-11T23:30:27.205Z,3.20
2018-08-11T23:32:55.694Z,3.90
2018-08-11T23:35:24.284Z,3.47
2018-08-11T23:37:52.811Z,3.70
2018-08-11T23:40:21.290Z,3.63
2018-08-11T23:42:49.783Z,3.30
2018-08-11T23:45:18.261Z,3.37
2018-08-11T23:47:46.770Z,3.20
2018-08-11T23:50:15.730Z,2.93
2018-08-11T23:52:44.960Z,4.00
2018-08-11T23:55:14.358Z,3.23
2018-08-11T23:57:42.919Z,3.10
